Time;durP1;ratioP1;P1;durP2;ratioP2;P2;SDS_P1;SDS_P2;PMS_P1;PMS_P2;Temp;Humidity;BMP_temperature;BMP_pressure;BME280_temperature;BME280_humidity;BME280_pressure;Samples;Min_cycle;Max_cycle;Signal;HPM_P1;HPM_P2
2022/12/23 00:01:04;;;;;;;27.45;12.10;;;;;;;5.42;100.00;99315.88;4934925;29;20047;-85
2022/12/23 00:03:31;;;;;;;26.60;11.80;;;;;;;5.44;100.00;99301.13;4929024;29;20036;-86
2022/12/23 00:05:57;;;;;;;29.95;11.60;;;;;;;5.48;100.00;99301.50;4911199;29;20123;-87
2022/12/23 00:08:24;;;;;;;28.17;11.55;;;;;;;5.46;100.00;99299.03;4932420;29;20059;-86
2022/12/23 00:10:52;;;;;;;23.88;12.07;;;;;;;5.50;100.00;99288.56;4916335;29;20031;-87
2022/12/23 00:16:06;;;;;;;21.80;11.45;;;;;;;5.56;100.00;99290.41;4908643;29;20052;-86
2022/12/23 00:18:32;;;;;;;22.42;10.82;;;;;;;5.64;100.00;99288.50;4925203;29;20513;-85
2022/12/23 00:21:06;;;;;;;23.45;11.40;;;;;;;5.73;100.00;99284.50;4914112;29;20040;-85
2022/12/23 00:23:34;;;;;;;22.13;10.90;;;;;;;5.83;100.00;99284.81;4930416;29;20135;-85
2022/12/23 00:26:00;;;;;;;21.50;11.43;;;;;;;5.86;100.00;99283.56;4916866;29;20499;-86
2022/12/23 00:28:28;;;;;;;22.42;11.73;;;;;;;5.92;100.00;99284.56;4917120;29;20424;-83
2022/12/23 00:31:03;;;;;;;21.05;10.98;;;;;;;5.97;100.00;99276.63;4912682;29;20071;-87
2022/12/23 00:33:38;;;;;;;24.15;11.48;;;;;;;5.95;100.00;99281.44;4920276;29;20040;-84
2022/12/23 00:36:27;;;;;;;22.08;11.45;;;;;;;5.96;100.00;99286.59;4932307;29;20044;-86
2022/12/23 00:44:24;;;;;;;21.88;11.20;;;;;;;6.01;100.00;99275.16;4918356;29;20040;-84
2022/12/23 00:46:50;;;;;;;23.55;11.80;;;;;;;6.00;100.00;99274.31;4911201;29;20508;-86
2022/12/23 00:52:05;;;;;;;20.27;10.82;;;;;;;6.04;100.00;99272.00;4918493;29;20512;-86
2022/12/23 00:54:32;;;;;;;20.88;10.40;;;;;;;6.08;100.00;99264.28;4905014;29;20036;-86
2022/12/23 00:56:58;;;;;;;21.65;10.88;;;;;;;6.12;100.00;99262.78;4931159;29;20551;-85
2022/12/23 00:59:24;;;;;;;21.77;11.05;;;;;;;6.11;100.00;99261.13;4918123;29;20036;-85
2022/12/23 01:07:21;;;;;;;19.35;9.15;;;;;;;6.10;100.00;99260.31;4924592;29;20035;-86
2022/12/23 01:09:47;;;;;;;19.33;9.52;;;;;;;6.10;100.00;99265.72;4918556;29;20487;-86
2022/12/23 01:12:13;;;;;;;19.17;9.32;;;;;;;6.09;100.00;99264.03;4942745;29;20107;-85
2022/12/23 01:14:40;;;;;;;21.48;9.90;;;;;;;6.12;100.00;99266.34;4923908;29;20059;-86
2022/12/23 01:17:07;;;;;;;18.48;9.70;;;;;;;6.14;100.00;99272.34;4893013;29;20493;-85
2022/12/23 01:19:33;;;;;;;16.48;9.07;;;;;;;6.16;100.00;99272.13;4918771;29;20036;-85
2022/12/23 01:21:59;;;;;;;16.80;8.88;;;;;;;6.17;100.00;99271.06;4926284;29;20126;-85
2022/12/23 01:24:30;;;;;;;19.10;9.60;;;;;;;6.13;100.00;99273.41;4917926;29;20036;-84
2022/12/23 01:26:57;;;;;;;17.77;9.52;;;;;;;6.13;100.00;99278.81;4916853;29;20093;-86
2022/12/23 01:29:24;;;;;;;19.20;9.07;;;;;;;6.14;100.00;99277.78;4903856;29;20068;-86
2022/12/23 01:31:50;;;;;;;16.92;8.75;;;;;;;6.13;100.00;99286.94;4919545;29;20127;-86
2022/12/23 01:34:16;;;;;;;18.40;8.85;;;;;;;6.11;100.00;99283.63;4910432;29;20044;-86
2022/12/23 01:36:42;;;;;;;16.95;9.13;;;;;;;6.12;100.00;99277.16;4915946;29;20072;-86
2022/12/23 01:39:08;;;;;;;17.23;8.68;;;;;;;6.13;100.00;99286.94;4913200;29;20104;-87
2022/12/23 01:44:48;;;;;;;17.73;8.45;;;;;;;6.17;100.00;99290.88;4913186;29;20040;-85
2022/12/23 01:47:26;;;;;;;12.98;7.43;;;;;;;6.28;100.00;99283.91;4905141;29;20405;-88
2022/12/23 01:49:58;;;;;;;17.27;8.55;;;;;;;6.29;100.00;99288.25;4921112;29;20407;-87
2022/12/23 01:52:24;;;;;;;17.77;8.55;;;;;;;6.29;100.00;99287.44;4939316;29;20036;-86
2022/12/23 01:54:51;;;;;;;14.70;8.23;;;;;;;6.36;100.00;99285.47;4937952;29;20133;-85
2022/12/23 01:57:17;;;;;;;34.60;9.85;;;;;;;6.31;100.00;99293.44;4909341;29;20131;-85
2022/12/23 02:05:18;;;;;;;19.60;8.50;;;;;;;6.40;100.00;99281.28;4931129;29;20040;-86
2022/12/23 02:10:52;;;;;;;18.63;9.13;;;;;;;6.46;100.00;99284.97;4908838;29;20043;-85
2022/12/23 02:16:15;;;;;;;16.48;7.90;;;;;;;6.53;100.00;99287.63;4912076;29;20048;-85
2022/12/23 02:16:36;;;;;;;15.63;7.93;;;;;;;6.54;100.00;99287.41;4911182;29;20047;-86
2022/12/23 02:19:12;;;;;;;14.60;7.65;;;;;;;6.59;100.00;99297.56;4901237;29;20504;-85
2022/12/23 02:21:49;;;;;;;14.15;7.00;;;;;;;6.69;100.00;99305.19;4916222;29;20071;-85
2022/12/23 02:24:27;;;;;;;15.07;7.18;;;;;;;6.73;100.00;99300.97;4906804;29;20479;-85
2022/12/23 02:27:17;;;;;;;12.52;6.70;;;;;;;6.74;100.00;99298.03;4917391;29;20396;-85
2022/12/23 02:30:04;;;;;;;11.82;6.00;;;;;;;6.78;100.00;99300.31;4915368;29;20046;-85
2022/12/23 02:32:57;;;;;;;15.02;5.75;;;;;;;6.80;100.00;99295.47;4913649;29;20091;-86
2022/12/23 02:35:39;;;;;;;12.00;6.25;;;;;;;6.83;100.00;99300.44;4912485;29;20445;-86
2022/12/23 02:38:22;;;;;;;11.88;5.63;;;;;;;6.84;100.00;99307.53;4921636;29;20044;-84
2022/12/23 02:41:05;;;;;;;12.38;6.38;;;;;;;6.83;100.00;99305.88;4922406;29;20501;-86
2022/12/23 02:44:01;;;;;;;12.60;6.38;;;;;;;6.83;100.00;99308.59;4898829;29;20741;-85
2022/12/23 02:46:47;;;;;;;13.52;7.30;;;;;;;6.84;100.00;99312.94;4908557;29;20492;-86
2022/12/23 02:49:24;;;;;;;16.48;7.68;;;;;;;6.87;100.00;99307.06;4922917;29;20043;-85
2022/12/23 02:51:55;;;;;;;15.13;7.22;;;;;;;6.87;100.00;99312.50;4911075;29;20096;-86
2022/12/23 02:54:33;;;;;;;13.25;6.82;;;;;;;6.89;100.00;99304.97;4908543;29;20075;-87
2022/12/23 02:57:03;;;;;;;13.90;7.05;;;;;;;6.86;100.00;99308.13;4913040;29;20070;-86
2022/12/23 02:59:38;;;;;;;13.73;7.38;;;;;;;6.87;100.00;99302.50;4925232;29;20045;-85
2022/12/23 03:02:04;;;;;;;16.27;7.47;;;;;;;6.88;100.00;99296.03;4931345;29;20095;-86
2022/12/23 03:04:30;;;;;;;16.25;7.65;;;;;;;6.88;100.00;99314.16;4916988;29;20099;-86
2022/12/23 03:06:58;;;;;;;16.23;8.02;;;;;;;6.86;100.00;99311.69;4936770;29;20126;-85
2022/12/23 03:09:50;;;;;;;13.60;7.10;;;;;;;6.87;100.00;99302.50;4903858;29;20025;-87
2022/12/23 03:12:56;;;;;;;14.52;7.43;;;;;;;6.89;100.00;99304.97;4907166;29;20054;-86
2022/12/23 03:15:44;;;;;;;15.68;7.78;;;;;;;6.90;100.00;99309.38;4909426;29;20040;-86
2022/12/23 03:18:37;;;;;;;15.68;7.53;;;;;;;6.91;100.00;99303.69;4910973;29;20035;-86
2022/12/23 03:21:13;;;;;;;15.93;7.18;;;;;;;6.93;100.00;99308.06;4915443;29;20138;-85
2022/12/23 03:23:49;;;;;;;13.02;6.97;;;;;;;6.94;100.00;99307.84;4917044;29;20036;-86
2022/12/23 03:26:42;;;;;;;13.32;6.60;;;;;;;6.97;100.00;99307.41;4907594;29;20456;-85
2022/12/23 03:29:16;;;;;;;12.77;6.80;;;;;;;6.96;100.00;99311.16;4907935;29;20100;-85
2022/12/23 03:31:44;;;;;;;12.73;6.43;;;;;;;6.96;100.00;99310.31;4915173;29;20121;-85
2022/12/23 03:34:17;;;;;;;13.57;5.78;;;;;;;6.97;100.00;99303.84;4929283;29;20040;-85
2022/12/23 03:36:52;;;;;;;10.23;5.32;;;;;;;6.98;100.00;99303.63;4930154;29;20547;-85
2022/12/23 03:39:22;;;;;;;11.43;5.80;;;;;;;6.97;100.00;99301.97;4904017;29;20045;-86
2022/12/23 03:42:03;;;;;;;9.77;4.93;;;;;;;6.98;100.00;99300.06;4912257;29;20047;-86
2022/12/23 03:44:34;;;;;;;12.15;5.03;;;;;;;6.98;100.00;99300.91;4918706;29;20043;-84
2022/12/23 03:47:07;;;;;;;9.57;4.93;;;;;;;6.96;100.00;99305.75;4914459;29;20028;-84
2022/12/23 03:49:47;;;;;;;9.73;4.90;;;;;;;6.97;100.00;99304.69;4916894;29;20400;-85
2022/12/23 03:52:16;;;;;;;12.35;5.47;;;;;;;6.98;100.00;99309.06;4913846;29;20385;-84
2022/12/23 03:54:48;;;;;;;11.15;5.05;;;;;;;6.99;100.00;99308.00;4912149;29;20068;-85
2022/12/23 03:57:15;;;;;;;12.13;5.45;;;;;;;7.00;100.00;99312.38;4933021;29;20044;-85
2022/12/23 03:59:45;;;;;;;11.13;4.97;;;;;;;7.09;100.00;99323.75;4921260;29;20435;-83
2022/12/23 04:02:27;;;;;;;10.52;5.43;;;;;;;7.07;100.00;99330.44;4919344;29;20040;-84
2022/12/23 04:05:28;;;;;;;13.88;5.95;;;;;;;7.10;100.00;99335.41;4912646;29;20515;-83
2022/12/23 04:08:24;;;;;;;10.02;4.90;;;;;;;7.08;100.00;99332.94;4933446;29;20191;-83
2022/12/23 04:10:51;;;;;;;9.35;3.80;;;;;;;7.06;100.00;99332.34;4913882;29;20437;-84
2022/12/23 04:13:17;;;;;;;7.47;3.35;;;;;;;7.07;100.00;99334.00;4933532;29;20048;-83
2022/12/23 04:15:43;;;;;;;5.85;2.78;;;;;;;7.09;100.00;99337.31;4918668;29;20111;-83
2022/12/23 04:18:10;;;;;;;6.03;3.10;;;;;;;7.11;100.00;99342.50;4919736;29;20029;-81
2022/12/23 04:20:36;;;;;;;5.55;2.80;;;;;;;7.14;100.00;99342.03;4919327;29;20135;-82
2022/12/23 04:23:03;;;;;;;6.65;3.22;;;;;;;7.13;100.00;99343.94;4933262;29;20044;-83
2022/12/23 04:25:29;;;;;;;8.65;3.70;;;;;;;7.11;100.00;99347.91;4919293;29;20035;-82
2022/12/23 04:27:55;;;;;;;8.48;3.55;;;;;;;7.11;100.00;99351.47;4924697;29;20044;-83
2022/12/23 04:30:21;;;;;;;8.43;3.72;;;;;;;7.17;100.00;99347.03;4925937;29;20342;-82
2022/12/23 04:32:47;;;;;;;10.50;4.05;;;;;;;7.14;100.00;99355.59;4932689;29;20067;-82
2022/12/23 04:35:13;;;;;;;10.60;4.22;;;;;;;7.13;100.00;99359.34;4933649;29;20536;-83
2022/12/23 04:37:39;;;;;;;12.60;5.28;;;;;;;7.13;100.00;99345.78;4917483;29;20058;-83
2022/12/23 04:40:06;;;;;;;10.77;5.22;;;;;;;7.11;100.00;99350.63;4919554;29;20036;-83
2022/12/23 04:42:33;;;;;;;12.32;5.80;;;;;;;7.14;100.00;99355.59;4918465;29;20043;-83
2022/12/23 04:44:59;;;;;;;14.02;5.72;;;;;;;7.12;100.00;99355.00;4918470;29;20040;-83
2022/12/23 04:47:25;;;;;;;12.52;5.72;;;;;;;7.14;100.00;99366.44;4919087;29;20036;-83
2022/12/23 04:49:51;;;;;;;16.23;6.90;;;;;;;7.11;100.00;99359.59;4916097;29;20048;-82
2022/12/23 04:52:17;;;;;;;15.07;7.22;;;;;;;7.15;100.00;99373.53;4918738;29;20131;-82
2022/12/23 04:54:44;;;;;;;16.88;6.78;;;;;;;7.14;100.00;99377.28;4918829;29;20115;-81
2022/12/23 04:57:10;;;;;;;17.55;7.72;;;;;;;7.08;100.00;99379.03;4918783;29;20474;-81
2022/12/23 04:59:36;;;;;;;17.88;7.38;;;;;;;7.11;100.00;99383.16;4918845;29;20032;-81
2022/12/23 05:02:02;;;;;;;17.13;8.23;;;;;;;7.06;100.00;99383.88;4915867;29;20058;-81
2022/12/23 05:04:28;;;;;;;20.10;8.55;;;;;;;7.08;100.00;99383.63;4917643;29;20032;-81
2022/12/23 05:06:54;;;;;;;17.17;7.40;;;;;;;7.08;100.00;99383.63;4916815;29;20040;-81
2022/12/23 05:09:20;;;;;;;15.52;7.18;;;;;;;7.07;100.00;99392.81;4918213;29;20090;-82
2022/12/23 05:11:46;;;;;;;12.45;5.78;;;;;;;6.98;100.00;99398.53;4917399;29;20040;-82
2022/12/23 05:14:13;;;;;;;15.40;7.78;;;;;;;6.96;100.00;99402.50;4929324;29;20085;-82
2022/12/23 05:16:40;;;;;;;16.37;8.23;;;;;;;6.91;100.00;99405.91;4937148;29;20059;-82
2022/12/23 05:19:06;;;;;;;22.92;10.18;;;;;;;6.89;100.00;99413.41;4934202;29;20294;-83
2022/12/23 05:21:32;;;;;;;23.65;10.27;;;;;;;6.85;100.00;99414.91;4937131;29;20484;-82
2022/12/23 05:23:58;;;;;;;21.33;10.20;;;;;;;6.84;100.00;99418.69;4935861;29;20040;-82
2022/12/23 05:26:24;;;;;;;22.55;10.50;;;;;;;6.81;100.00;99421.84;4942442;29;20039;-82
2022/12/23 05:28:50;;;;;;;22.77;11.30;;;;;;;6.74;100.00;99427.31;4943948;29;20483;-83
2022/12/23 05:31:17;;;;;;;25.23;11.55;;;;;;;6.72;100.00;99434.84;4945548;29;20031;-82
2022/12/23 05:33:43;;;;;;;29.33;11.70;;;;;;;6.66;100.00;99435.72;4923967;29;20095;-83
2022/12/23 05:36:10;;;;;;;23.77;11.13;;;;;;;6.61;100.00;99439.94;4919580;29;20051;-82
2022/12/23 05:38:36;;;;;;;27.90;12.70;;;;;;;6.62;100.00;99446.16;4943431;29;20118;-82
2022/12/23 05:41:03;;;;;;;19.45;10.00;;;;;;;6.57;100.00;99448.72;4941105;29;20050;-83
2022/12/23 05:43:29;;;;;;;29.10;11.68;;;;;;;6.53;100.00;99447.50;4914562;29;20117;-83
2022/12/23 05:45:55;;;;;;;28.58;12.52;;;;;;;6.48;100.00;99457.13;4938728;29;20079;-84
2022/12/23 05:48:21;;;;;;;27.83;12.93;;;;;;;6.45;100.00;99459.41;4930184;29;20043;-83
2022/12/23 05:50:52;;;;;;;28.85;12.88;;;;;;;6.44;100.00;99471.31;4942065;29;20036;-83
2022/12/23 05:53:19;;;;;;;28.45;13.77;;;;;;;6.42;100.00;99468.84;4926946;29;20044;-83
2022/12/23 05:55:45;;;;;;;28.13;13.43;;;;;;;6.40;100.00;99470.94;4941666;29;20114;-83
2022/12/23 05:58:11;;;;;;;27.42;12.75;;;;;;;6.36;100.00;99477.81;4923092;29;20050;-83
2022/12/23 06:00:37;;;;;;;26.15;12.68;;;;;;;6.33;100.00;99465.56;4932626;29;20114;-83
2022/12/23 06:03:03;;;;;;;24.48;12.55;;;;;;;6.34;100.00;99479.91;4914619;29;20091;-83
2022/12/23 06:05:30;;;;;;;27.88;13.68;;;;;;;6.31;100.00;99486.63;4929845;29;20071;-83
2022/12/23 06:07:56;;;;;;;23.90;11.00;;;;;;;6.33;100.00;99497.22;4936578;29;20052;-85
2022/12/23 06:10:22;;;;;;;24.98;11.85;;;;;;;6.29;100.00;99506.81;4936333;29;20055;-84
2022/12/23 06:12:48;;;;;;;22.08;11.13;;;;;;;6.30;100.00;99505.78;4935807;29;20107;-84
2022/12/23 06:15:14;;;;;;;25.25;12.70;;;;;;;6.23;100.00;99496.88;4935693;29;20040;-84
2022/12/23 06:17:41;;;;;;;24.00;11.25;;;;;;;6.19;100.00;99507.28;4939516;29;20078;-83
2022/12/23 06:20:08;;;;;;;19.92;10.50;;;;;;;6.13;100.00;99506.28;4902908;29;20401;-83
2022/12/23 06:22:34;;;;;;;21.35;10.80;;;;;;;6.09;100.00;99512.34;4933869;29;20040;-84
2022/12/23 06:25:00;;;;;;;19.73;10.27;;;;;;;6.08;100.00;99511.50;4906222;29;20554;-84
2022/12/23 06:27:26;;;;;;;21.08;10.57;;;;;;;6.04;100.00;99515.69;4907113;29;20043;-84
2022/12/23 06:29:52;;;;;;;20.95;11.25;;;;;;;5.96;100.00;99515.91;4911881;29;20044;-84
2022/12/23 06:32:18;;;;;;;19.90;10.10;;;;;;;5.94;100.00;99529.66;4935611;29;20097;-86
2022/12/23 06:34:45;;;;;;;20.58;10.75;;;;;;;5.91;100.00;99527.38;4935462;29;20031;-85
2022/12/23 06:37:11;;;;;;;20.52;11.00;;;;;;;5.90;100.00;99523.84;4935631;29;20043;-85
2022/12/23 06:39:37;;;;;;;21.42;11.23;;;;;;;5.98;100.00;99521.94;4904621;29;20039;-86
2022/12/23 06:42:03;;;;;;;21.10;11.50;;;;;;;5.96;100.00;99534.88;4929178;29;20043;-86
2022/12/23 06:44:29;;;;;;;21.38;11.48;;;;;;;6.04;100.00;99529.22;4893702;29;20475;-85
2022/12/23 06:46:55;;;;;;;22.67;11.90;;;;;;;5.93;100.00;99538.00;4931498;29;20031;-84
2022/12/23 06:49:21;;;;;;;25.02;12.95;;;;;;;5.89;100.00;99543.84;4935203;29;20032;-85
2022/12/23 06:51:47;;;;;;;21.63;11.52;;;;;;;5.90;100.00;99548.22;4926295;29;20407;-85
2022/12/23 06:54:14;;;;;;;24.90;11.90;;;;;;;5.88;100.00;99553.00;4914262;29;20083;-83
2022/12/23 06:56:40;;;;;;;25.08;12.63;;;;;;;5.90;100.00;99561.75;4935750;29;20099;-83
2022/12/23 06:59:06;;;;;;;27.27;13.38;;;;;;;5.86;100.00;99562.38;4933605;29;20256;-84
2022/12/23 07:01:32;;;;;;;22.67;12.00;;;;;;;5.89;100.00;99570.06;4908542;29;20063;-85
2022/12/23 07:03:58;;;;;;;24.58;12.02;;;;;;;5.90;100.00;99569.88;4920292;29;20062;-86
2022/12/23 07:06:25;;;;;;;26.52;13.35;;;;;;;5.87;100.00;99577.56;4923897;29;20131;-84
2022/12/23 07:08:51;;;;;;;28.92;14.85;;;;;;;5.87;100.00;99567.59;4929788;29;20099;-83
2022/12/23 07:11:17;;;;;;;30.00;15.00;;;;;;;5.89;100.00;99581.75;4926576;29;20039;-84
2022/12/23 07:13:44;;;;;;;30.30;13.35;;;;;;;5.90;100.00;99590.69;4930249;29;20134;-83
2022/12/23 07:16:10;;;;;;;34.55;16.60;;;;;;;5.87;100.00;99575.72;4933717;29;20036;-83
2022/12/23 07:18:36;;;;;;;32.47;16.25;;;;;;;5.85;100.00;99590.50;4935734;29;20032;-82
2022/12/23 07:21:03;;;;;;;25.42;13.50;;;;;;;5.85;100.00;99585.94;4920967;29;20047;-83
2022/12/23 07:23:29;;;;;;;28.67;14.32;;;;;;;5.85;100.00;99588.63;4932267;29;20040;-82
2022/12/23 07:25:56;;;;;;;27.83;13.20;;;;;;;5.78;100.00;99593.19;4926075;29;20096;-81
2022/12/23 07:28:23;;;;;;;25.23;13.00;;;;;;;5.83;100.00;99598.00;4932225;29;20160;-81
2022/12/23 07:30:49;;;;;;;25.25;12.35;;;;;;;5.84;100.00;99596.94;4915106;29;20965;-80
2022/12/23 07:33:15;;;;;;;28.98;13.70;;;;;;;5.79;100.00;99591.34;4910769;29;20120;-81
2022/12/23 07:35:41;;;;;;;29.15;13.65;;;;;;;5.82;100.00;99594.44;4916774;29;20398;-80
2022/12/23 07:38:08;;;;;;;31.27;13.23;;;;;;;5.82;100.00;99599.03;4937140;29;20058;-79
2022/12/23 07:40:34;;;;;;;30.08;13.70;;;;;;;5.82;100.00;99602.56;4931913;29;20035;-79
2022/12/23 07:43:00;;;;;;;30.23;13.02;;;;;;;5.80;100.00;99606.53;4915832;29;20036;-79
2022/12/23 07:45:28;;;;;;;26.85;13.75;;;;;;;5.81;100.00;99603.59;4931498;29;20051;-80
2022/12/23 07:47:55;;;;;;;26.55;13.15;;;;;;;5.80;100.00;99606.53;4925674;29;20091;-79
2022/12/23 07:50:22;;;;;;;32.17;14.52;;;;;;;5.85;100.00;99610.28;4931433;29;20035;-79
2022/12/23 07:52:48;;;;;;;31.35;14.57;;;;;;;5.91;100.00;99611.28;4932585;29;20044;-78
2022/12/23 07:55:14;;;;;;;31.55;14.82;;;;;;;5.94;100.00;99608.16;4914193;29;20101;-79
2022/12/23 07:57:40;;;;;;;32.70;14.98;;;;;;;5.95;100.00;99615.25;4914625;29;20040;-81
2022/12/23 08:00:11;;;;;;;28.63;14.90;;;;;;;5.98;100.00;99617.56;4931765;29;20083;-81
2022/12/23 08:02:41;;;;;;;31.23;13.68;;;;;;;6.06;100.00;99621.09;4930364;29;20032;-78
2022/12/23 08:05:08;;;;;;;26.63;13.23;;;;;;;6.07;100.00;99625.47;4930893;29;20039;-79
2022/12/23 08:07:35;;;;;;;27.67;13.73;;;;;;;6.03;100.00;99617.78;4913296;29;20035;-80
2022/12/23 08:10:01;;;;;;;26.33;12.75;;;;;;;6.04;100.00;99626.72;4929421;29;20044;-79
2022/12/23 08:12:27;;;;;;;27.67;13.93;;;;;;;6.01;100.00;99632.56;4930947;29;20047;-80
2022/12/23 08:14:53;;;;;;;26.45;13.50;;;;;;;6.02;100.00;99632.34;4929930;29;20522;-79
2022/12/23 08:17:20;;;;;;;25.88;12.60;;;;;;;5.96;100.00;99637.75;4929230;29;20499;-79
2022/12/23 08:19:47;;;;;;;24.60;12.13;;;;;;;5.95;100.00;99642.31;4929928;29;20087;-79
2022/12/23 08:22:13;;;;;;;22.30;11.63;;;;;;;5.86;100.00;99636.31;4929842;29;20054;-79
2022/12/23 08:24:39;;;;;;;25.02;12.48;;;;;;;5.93;100.00;99638.16;4936382;29;20415;-79
2022/12/23 08:27:06;;;;;;;25.42;12.65;;;;;;;5.96;100.00;99648.56;4938191;29;20542;-79
2022/12/23 08:29:32;;;;;;;24.55;12.45;;;;;;;5.97;100.00;99651.09;4940347;29;20054;-80
2022/12/23 08:31:58;;;;;;;28.20;13.30;;;;;;;5.96;100.00;99657.50;4935823;29;20565;-79
2022/12/23 08:34:24;;;;;;;31.70;14.35;;;;;;;5.98;100.00;99663.56;4937214;29;20043;-80
2022/12/23 08:36:51;;;;;;;32.90;14.55;;;;;;;5.98;100.00;99663.56;4906620;29;20174;-79
2022/12/23 08:39:17;;;;;;;29.13;13.43;;;;;;;6.07;100.00;99656.06;4931499;29;20106;-79
2022/12/23 08:41:46;;;;;;;30.35;13.77;;;;;;;6.08;100.00;99665.84;4936573;29;20044;-81
2022/12/23 08:44:13;;;;;;;28.35;13.10;;;;;;;6.04;100.00;99667.31;4922072;29;20561;-80
2022/12/23 08:46:40;;;;;;;30.67;14.00;;;;;;;6.10;100.00;99668.38;4938771;29;20057;-81
2022/12/23 08:49:07;;;;;;;30.40;14.95;;;;;;;6.14;100.00;99673.16;4943632;29;20137;-81
2022/12/23 08:51:34;;;;;;;29.83;14.17;;;;;;;6.16;100.00;99673.78;4935832;29;20070;-81
2022/12/23 08:54:01;;;;;;;29.80;14.30;;;;;;;6.18;100.00;99678.97;4934871;29;20043;-80
2022/12/23 08:56:31;;;;;;;31.52;14.30;;;;;;;6.12;100.00;99683.38;4928380;29;20049;-79
2022/12/23 08:58:58;;;;;;;30.25;14.65;;;;;;;6.21;100.00;99683.97;4937762;29;20080;-82
2022/12/23 09:01:27;;;;;;;32.40;15.50;;;;;;;6.21;100.00;99699.38;4929985;29;20044;-81
2022/12/23 09:03:53;;;;;;;38.67;16.23;;;;;;;6.10;100.00;99698.16;4933827;29;20059;-82
2022/12/23 09:06:25;;;;;;;35.00;15.50;;;;;;;6.18;100.00;99704.19;4933163;29;20095;-82
2022/12/23 09:08:51;;;;;;;29.10;14.85;;;;;;;6.18;100.00;99712.31;4929517;29;20051;-80
2022/12/23 09:11:20;;;;;;;31.60;15.00;;;;;;;6.21;100.00;99704.81;4932823;29;20067;-81
2022/12/23 09:13:47;;;;;;;36.40;15.85;;;;;;;6.27;100.00;99690.41;4916124;29;20537;-82
2022/12/23 09:16:13;;;;;;;34.90;14.98;;;;;;;6.28;100.00;99692.91;4934667;29;20687;-80
2022/12/23 09:18:40;;;;;;;34.75;14.50;;;;;;;6.30;100.00;99703.53;4934291;29;20501;-81
2022/12/23 09:21:12;;;;;;;30.00;14.40;;;;;;;6.31;100.00;99707.91;4933930;29;20076;-80
2022/12/23 09:23:39;;;;;;;35.53;16.63;;;;;;;6.33;100.00;99705.81;4934115;29;20036;-78
2022/12/23 09:26:06;;;;;;;34.35;15.95;;;;;;;6.26;100.00;99697.72;4934219;29;20629;-77
2022/12/23 09:28:32;;;;;;;37.93;16.23;;;;;;;6.30;100.00;99703.53;4933485;29;20380;-79
2022/12/23 09:31:06;;;;;;;36.45;15.05;;;;;;;6.30;100.00;99693.53;4935632;29;20329;-81
2022/12/23 09:33:32;;;;;;;33.25;15.70;;;;;;;6.32;100.00;99696.03;4936156;29;20052;-79
2022/12/23 09:36:02;;;;;;;31.25;15.38;;;;;;;6.33;100.00;99703.09;4934252;29;20059;-80
2022/12/23 09:38:28;;;;;;;34.92;16.00;;;;;;;6.37;100.00;99698.09;4936687;29;20078;-80
2022/12/23 09:41:02;;;;;;;32.03;14.57;;;;;;;6.33;100.00;99703.94;4936506;29;20039;-80
2022/12/23 09:43:58;;;;;;;33.70;15.25;;;;;;;6.34;100.00;99710.19;4943730;29;20115;-81
2022/12/23 09:46:28;;;;;;;34.72;15.18;;;;;;;6.33;100.00;99708.53;4921311;29;20052;-81
2022/12/23 09:49:12;;;;;;;34.08;15.15;;;;;;;6.29;100.00;99720.81;4917229;29;20506;-79
2022/12/23 09:51:38;;;;;;;34.13;15.93;;;;;;;6.29;100.00;99723.53;4936681;29;20066;-81
2022/12/23 09:54:23;;;;;;;32.83;15.57;;;;;;;6.37;100.00;99719.78;4936218;29;20487;-80
2022/12/23 09:57:18;;;;;;;33.22;16.02;;;;;;;6.39;100.00;99714.97;4935145;29;20048;-81
2022/12/23 10:00:04;;;;;;;36.42;15.73;;;;;;;6.52;100.00;99717.66;4918180;29;20070;-80
2022/12/23 10:02:46;;;;;;;35.78;16.17;;;;;;;6.66;100.00;99707.63;4936250;29;20061;-81
2022/12/23 10:05:31;;;;;;;39.50;16.10;;;;;;;6.62;100.00;99725.31;4913890;29;20040;-79
2022/12/23 10:08:03;;;;;;;40.30;15.98;;;;;;;6.66;100.00;99729.31;4919215;29;20190;-81
2022/12/23 10:10:55;;;;;;;33.15;16.27;;;;;;;6.70;100.00;99733.25;4933820;29;20027;-82
2022/12/23 10:13:42;;;;;;;34.40;16.10;;;;;;;6.76;100.00;99734.25;4935775;29;20160;-82
2022/12/23 10:16:22;;;;;;;32.60;15.63;;;;;;;6.69;100.00;99730.72;4936073;29;20392;-82
2022/12/23 10:19:11;;;;;;;36.78;16.25;;;;;;;6.60;100.00;99727.41;4936201;29;20032;-81
2022/12/23 10:21:54;;;;;;;33.33;16.20;;;;;;;6.59;100.00;99713.06;4935879;29;20036;-82
2022/12/23 10:24:28;;;;;;;35.17;16.25;;;;;;;6.57;100.00;99719.72;4935915;29;20059;-78
2022/12/23 10:26:56;;;;;;;39.63;16.88;;;;;;;6.62;100.00;99725.31;4940160;29;20059;-79
2022/12/23 10:29:25;;;;;;;32.85;15.93;;;;;;;6.61;100.00;99726.38;4944697;29;20066;-78
2022/12/23 10:31:59;;;;;;;39.00;16.75;;;;;;;6.56;100.00;99731.59;4941874;29;20358;-78
2022/12/23 10:34:25;;;;;;;36.88;15.90;;;;;;;6.53;100.00;99740.16;4945413;29;20039;-79
2022/12/23 10:37:16;;;;;;;38.90;16.20;;;;;;;6.46;100.00;99732.88;4939992;29;20040;-80
2022/12/23 10:40:09;;;;;;;40.30;16.70;;;;;;;6.48;100.00;99733.50;4918406;29;20550;-82
2022/12/23 10:42:57;;;;;;;37.28;16.13;;;;;;;6.51;100.00;99715.16;4935947;29;20067;-79
2022/12/23 10:45:46;;;;;;;37.00;15.77;;;;;;;6.57;100.00;99719.72;4931264;29;20040;-79
2022/12/23 10:48:48;;;;;;;41.13;16.25;;;;;;;6.67;100.00;99728.25;4934608;29;20453;-78
2022/12/23 10:51:24;;;;;;;41.95;15.40;;;;;;;6.60;100.00;99713.88;4933610;29;20039;-78
2022/12/23 10:53:55;;;;;;;40.05;16.45;;;;;;;6.69;100.00;99714.47;4931832;29;20039;-78
2022/12/23 10:56:22;;;;;;;37.58;16.33;;;;;;;6.66;100.00;99713.03;4933935;29;20054;-78
2022/12/23 10:58:55;;;;;;;38.25;15.18;;;;;;;6.69;100.00;99701.75;4941325;29;20042;-79
2022/12/23 11:01:22;;;;;;;36.25;15.45;;;;;;;6.68;100.00;99705.53;4935232;29;20110;-79
2022/12/23 11:03:54;;;;;;;34.67;15.57;;;;;;;6.71;100.00;99694.25;4934808;29;20048;-78
2022/12/23 11:06:21;;;;;;;36.65;16.33;;;;;;;6.70;100.00;99691.72;4934661;29;20040;-78
2022/12/23 11:08:47;;;;;;;39.83;16.88;;;;;;;6.69;100.00;99690.91;4900482;29;20149;-79
2022/12/23 11:11:13;;;;;;;43.25;17.20;;;;;;;6.68;100.00;99694.69;4931693;29;20046;-78
2022/12/23 11:13:43;;;;;;;43.13;17.33;;;;;;;6.69;100.00;99701.75;4934725;29;20487;-81
2022/12/23 11:16:25;;;;;;;60.35;17.67;;;;;;;6.61;100.00;99696.56;4935319;29;20032;-80
2022/12/23 11:19:03;;;;;;;53.97;18.52;;;;;;;6.53;100.00;99699.50;4920053;29;20036;-80
2022/12/23 11:21:31;;;;;;;44.85;17.42;;;;;;;6.44;100.00;99702.47;4934392;29;20039;-81
2022/12/23 11:24:18;;;;;;;46.65;17.70;;;;;;;6.37;100.00;99703.53;4925474;29;20043;-79
2022/12/23 11:26:47;;;;;;;47.20;17.83;;;;;;;6.32;100.00;99698.72;4934458;29;20032;-80
2022/12/23 11:29:26;;;;;;;54.47;18.33;;;;;;;6.25;100.00;99695.22;4932511;29;20054;-81
2022/12/23 11:31:52;;;;;;;;;;;;;;;6.18;100.00;99684.38;4932941;29;20047;-84
2022/12/23 11:34:24;;;;;;;50.08;19.05;;;;;;;6.11;100.00;99691.69;4934393;29;19930;-83
2022/12/23 11:36:59;;;;;;;64.57;22.80;;;;;;;6.09;100.00;99694.59;4917731;29;20036;-83
2022/12/23 11:39:29;;;;;;;60.67;20.65;;;;;;;6.06;100.00;99695.03;4934785;29;20047;-84
2022/12/23 11:42:13;;;;;;;67.82;21.83;;;;;;;6.06;100.00;99686.09;4934586;29;20032;-84
2022/12/23 11:44:44;;;;;;;60.40;21.10;;;;;;;6.07;100.00;99677.72;4926304;29;20032;-85
2022/12/23 11:47:22;;;;;;;59.30;19.85;;;;;;;6.05;100.00;99677.13;4911214;29;20119;-84
2022/12/23 11:50:01;;;;;;;65.18;21.70;;;;;;;6.05;100.00;99677.13;4927899;29;20082;-84
2022/12/23 11:52:30;;;;;;;72.18;23.10;;;;;;;6.07;100.00;99666.91;4934380;29;20036;-84
2022/12/23 11:54:59;;;;;;;73.53;23.88;;;;;;;6.14;100.00;99665.03;4934512;29;20090;-83
2022/12/23 11:57:47;;;;;;;74.50;22.90;;;;;;;6.23;100.00;99665.63;4934470;29;20109;-83
2022/12/23 12:00:22;;;;;;;66.65;20.42;;;;;;;6.27;100.00;99664.16;4933866;29;20195;-84
2022/12/23 12:03:16;;;;;;;68.53;22.33;;;;;;;6.33;100.00;99660.59;4933684;29;20082;-83
2022/12/23 12:05:56;;;;;;;77.18;21.83;;;;;;;6.38;100.00;99657.25;4927389;29;20106;-83